MV Youngbok — 9GQF — position and weather

sailwx.info

Track history (hours):
 
Tides and Currents Weather Stations Pressure Air Temp Water Temp Dewpoint Dewpoint Depression Visibility Wind Speed Wind Dir Waves Ship Positions

MV Youngbok

Last reported at 2018-Jun-14 04:50 UTC. Time now 2018-Jun-25 02:10 UTC.
Position N 05°27' E 000°07'.
Warning: this ship's position is 10 days out of date.

Length 50 m.

Type: Fishing. MMSI: 627013000.

Date/timePositionNaut miles runAvg speedWind from/ knotsBaromVisibWave heightAir tempDewpointWater temp
2018-Jun-14 04:50N 05°27' E 000°07'1 2.3
2018-Jun-14 04:28N 05°28' E 000°06'0 0.2
2018-Jun-14 03:58N 05°27' E 000°06'0 0.1
2018-Jun-14 03:29N 05°27' E 000°06'0 0.2
2018-Jun-14 02:58N 05°27' E 000°06'0 0.3
2018-Jun-14 02:28N 05°27' E 000°06'0 0.5
2018-Jun-14 01:55N 05°27' E 000°06'0 0.5
2018-Jun-14 01:28N 05°27' E 000°06'0 0.6
2018-Jun-14 00:46N 05°26' E 000°07'0 0.6
2018-Jun-14 00:28N 05°26' E 000°07'0 0.5
2018-Jun-13 23:58N 05°26' E 000°07'0 0.4
2018-Jun-13 23:28N 05°26' E 000°07'0 0.4
2018-Jun-13 22:55N 05°25' E 000°07'0 0.2
2018-Jun-13 22:22N 05°25' E 000°06'0 0.1
2018-Jun-13 21:58N 05°25' E 000°06'0 0.1
2018-Jun-13 21:28N 05°25' E 000°07'0 0.1
2018-Jun-13 20:55N 05°25' E 000°07'0 0.1
2018-Jun-13 20:22N 05°25' E 000°07'0 0.1
2018-Jun-13 19:58N 05°25' E 000°07'0 0.1
2018-Jun-13 19:28N 05°25' E 000°07'3 6.2
2018-Jun-13 18:58N 05°28' E 000°06'4 9.4
2018-Jun-13 18:30N 05°32' E 000°04'4 9.0
2018-Jun-13 18:00N 05°37' E 000°02'1 1.0
2018-Jun-13 17:30N 05°37' E 000°02'0 0.1
2018-Jun-13 17:00N 05°37' E 000°02'0 0.0
2018-Jun-13 16:29N 05°37' E 000°02'0 0.0
2018-Jun-13 16:00N 05°37' E 000°02'0 0.0
2018-Jun-13 15:30N 05°37' E 000°02'0 0.0
2018-Jun-13 14:59N 05°37' E 000°02'0 0.0
2018-Jun-13 14:29N 05°37' E 000°02'0 0.0
2018-Jun-13 13:59N 05°37' E 000°02'0 0.0
2018-Jun-13 13:30N 05°37' E 000°02'0 0.0
2018-Jun-13 12:59N 05°37' E 000°02'0 0.0
2018-Jun-13 12:29N 05°37' E 000°02'0 0.0
2018-Jun-13 11:59N 05°37' E 000°02'0 0.0
2018-Jun-13 11:30N 05°37' E 000°02'0 0.0
2018-Jun-13 10:59N 05°37' E 000°02'0 0.0
2018-Jun-13 10:29N 05°37' E 000°02'0 0.0
2018-Jun-13 09:59N 05°37' E 000°02'0 0.0
2018-Jun-13 09:29N 05°37' E 000°02'0 0.1
2018-Jun-13 09:00N 05°37' E 000°02'0 0.0
2018-Jun-13 08:27N 05°37' E 000°02'0 0.0
2018-Jun-13 08:00N 05°37' E 000°02'0 0.0
2018-Jun-13 07:28N 05°37' E 000°02'2 4.8
2018-Jun-13 07:00N 05°35' E 000°04'5 9.3
2018-Jun-13 06:30N 05°32' E 000°07'2 3.1
2018-Jun-13 06:00N 05°31' E 000°08'4 7.9
2018-Jun-13 05:30N 05°27' E 000°10'5 9.3
2018-Jun-13 05:00N 05°24' E 000°13'  
2018-Jun-05 17:29N 05°30' E 000°03'5 8.8
2018-Jun-05 16:58N 05°35' E 000°03'1 2.5
2018-Jun-05 16:30N 05°36' E 000°02'0 0.0
2018-Jun-05 15:46N 05°36' E 000°02'0 0.1
2018-Jun-05 15:30N 05°36' E 000°02'1 1.7
2018-Jun-05 15:00N 05°36' E 000°03'5 9.3
2018-Jun-05 14:30N 05°35' E 000°07'5 9.4
2018-Jun-05 14:00N 05°33' E 000°12'7 0.3
2018-Jun-04 18:31N 05°36' E 000°18'0 0.9
2018-Jun-04 18:24N 05°36' E 000°18'2 4.8
2018-Jun-04 17:59N 05°35' E 000°16'1 2.2
2018-Jun-04 17:22N 05°35' E 000°15'0 1.2
2018-Jun-04 17:00N 05°35' E 000°15'5 9.2
2018-Jun-04 16:30N 05°35' E 000°10'4 8.0
2018-Jun-04 15:58N 05°35' E 000°06'0 0.7
2018-Jun-04 15:28N 05°34' E 000°06'2 4.6
2018-Jun-04 14:59N 05°36' E 000°04'2 4.7
2018-Jun-04 14:30N 05°37' E 000°02'0 0.1
2018-Jun-04 14:00N 05°37' E 000°02'0 0.0
2018-Jun-04 13:30N 05°37' E 000°02'0 0.0
2018-Jun-04 13:00N 05°37' E 000°02'0 0.0
2018-Jun-04 12:30N 05°37' E 000°02'0 0.0
2018-Jun-04 12:00N 05°37' E 000°02'0 0.0
2018-Jun-04 11:29N 05°37' E 000°02'0 0.0
2018-Jun-04 10:59N 05°37' E 000°02'0 0.0
2018-Jun-04 10:28N 05°37' E 000°02'0 0.0
2018-Jun-04 10:00N 05°37' E 000°02'0 0.0
2018-Jun-04 09:30N 05°37' E 000°02'0 0.0
2018-Jun-04 09:00N 05°37' E 000°02'0 0.0
2018-Jun-04 08:30N 05°37' E 000°02'0 0.0
2018-Jun-04 08:00N 05°37' E 000°02'0 0.0
2018-Jun-04 07:30N 05°37' E 000°02'0 0.0
2018-Jun-04 06:59N 05°37' E 000°02'0 0.0
2018-Jun-04 06:28N 05°37' E 000°02'0 0.0
2018-Jun-04 05:58N 05°37' E 000°02'0 0.0
2018-Jun-04 05:30N 05°37' E 000°02'0 0.0
2018-Jun-04 04:58N 05°37' E 000°02'  
Track history (hours):
 
Tides and Currents Weather Stations Pressure Air Temp Water Temp Dewpoint Dewpoint Depression Visibility Wind Speed Wind Dir Waves Ship Positions

MV Youngbok

Last reported at 2018-Jun-14 04:50 UTC. Time now 2018-Jun-25 02:10 UTC.
Position N 05°27' E 000°07'.
Warning: this ship's position is 10 days out of date.

Length 50 m.

Type: Fishing. MMSI: 627013000.

Date/timePositionNaut miles runAvg speedWind from/ knotsBaromVisibWave heightAir tempDewpointWater temp
2018-Jun-14 04:50N 05°27' E 000°07'1 2.3
2018-Jun-14 04:28N 05°28' E 000°06'0 0.2
2018-Jun-14 03:58N 05°27' E 000°06'0 0.1
2018-Jun-14 03:29N 05°27' E 000°06'0 0.2
2018-Jun-14 02:58N 05°27' E 000°06'0 0.3
2018-Jun-14 02:28N 05°27' E 000°06'0 0.5
2018-Jun-14 01:55N 05°27' E 000°06'0 0.5
2018-Jun-14 01:28N 05°27' E 000°06'0 0.6
2018-Jun-14 00:46N 05°26' E 000°07'0 0.6
2018-Jun-14 00:28N 05°26' E 000°07'0 0.5
2018-Jun-13 23:58N 05°26' E 000°07'0 0.4
2018-Jun-13 23:28N 05°26' E 000°07'0 0.4
2018-Jun-13 22:55N 05°25' E 000°07'0 0.2
2018-Jun-13 22:22N 05°25' E 000°06'0 0.1
2018-Jun-13 21:58N 05°25' E 000°06'0 0.1
2018-Jun-13 21:28N 05°25' E 000°07'0 0.1
2018-Jun-13 20:55N 05°25' E 000°07'0 0.1
2018-Jun-13 20:22N 05°25' E 000°07'0 0.1
2018-Jun-13 19:58N 05°25' E 000°07'0 0.1
2018-Jun-13 19:28N 05°25' E 000°07'3 6.2
2018-Jun-13 18:58N 05°28' E 000°06'4 9.4
2018-Jun-13 18:30N 05°32' E 000°04'4 9.0
2018-Jun-13 18:00N 05°37' E 000°02'1 1.0
2018-Jun-13 17:30N 05°37' E 000°02'0 0.1
2018-Jun-13 17:00N 05°37' E 000°02'0 0.0
2018-Jun-13 16:29N 05°37' E 000°02'0 0.0
2018-Jun-13 16:00N 05°37' E 000°02'0 0.0
2018-Jun-13 15:30N 05°37' E 000°02'0 0.0
2018-Jun-13 14:59N 05°37' E 000°02'0 0.0
2018-Jun-13 14:29N 05°37' E 000°02'0 0.0
2018-Jun-13 13:59N 05°37' E 000°02'0 0.0
2018-Jun-13 13:30N 05°37' E 000°02'0 0.0
2018-Jun-13 12:59N 05°37' E 000°02'0 0.0
2018-Jun-13 12:29N 05°37' E 000°02'0 0.0
2018-Jun-13 11:59N 05°37' E 000°02'0 0.0
2018-Jun-13 11:30N 05°37' E 000°02'0 0.0
2018-Jun-13 10:59N 05°37' E 000°02'0 0.0
2018-Jun-13 10:29N 05°37' E 000°02'0 0.0
2018-Jun-13 09:59N 05°37' E 000°02'0 0.0
2018-Jun-13 09:29N 05°37' E 000°02'0 0.1
2018-Jun-13 09:00N 05°37' E 000°02'0 0.0
2018-Jun-13 08:27N 05°37' E 000°02'0 0.0
2018-Jun-13 08:00N 05°37' E 000°02'0 0.0
2018-Jun-13 07:28N 05°37' E 000°02'2 4.8
2018-Jun-13 07:00N 05°35' E 000°04'5 9.3
2018-Jun-13 06:30N 05°32' E 000°07'2 3.1
2018-Jun-13 06:00N 05°31' E 000°08'4 7.9
2018-Jun-13 05:30N 05°27' E 000°10'5 9.3
2018-Jun-13 05:00N 05°24' E 000°13'  
2018-Jun-05 17:29N 05°30' E 000°03'5 8.8
2018-Jun-05 16:58N 05°35' E 000°03'1 2.5
2018-Jun-05 16:30N 05°36' E 000°02'0 0.0
2018-Jun-05 15:46N 05°36' E 000°02'0 0.1
2018-Jun-05 15:30N 05°36' E 000°02'1 1.7
2018-Jun-05 15:00N 05°36' E 000°03'5 9.3
2018-Jun-05 14:30N 05°35' E 000°07'5 9.4
2018-Jun-05 14:00N 05°33' E 000°12'7 0.3
2018-Jun-04 18:31N 05°36' E 000°18'0 0.9
2018-Jun-04 18:24N 05°36' E 000°18'2 4.8
2018-Jun-04 17:59N 05°35' E 000°16'1 2.2
2018-Jun-04 17:22N 05°35' E 000°15'0 1.2
2018-Jun-04 17:00N 05°35' E 000°15'5 9.2
2018-Jun-04 16:30N 05°35' E 000°10'4 8.0
2018-Jun-04 15:58N 05°35' E 000°06'0 0.7
2018-Jun-04 15:28N 05°34' E 000°06'2 4.6
2018-Jun-04 14:59N 05°36' E 000°04'2 4.7
2018-Jun-04 14:30N 05°37' E 000°02'0 0.1
2018-Jun-04 14:00N 05°37' E 000°02'0 0.0
2018-Jun-04 13:30N 05°37' E 000°02'0 0.0
2018-Jun-04 13:00N 05°37' E 000°02'0 0.0
2018-Jun-04 12:30N 05°37' E 000°02'0 0.0
2018-Jun-04 12:00N 05°37' E 000°02'0 0.0
2018-Jun-04 11:29N 05°37' E 000°02'0 0.0
2018-Jun-04 10:59N 05°37' E 000°02'0 0.0
2018-Jun-04 10:28N 05°37' E 000°02'0 0.0
2018-Jun-04 10:00N 05°37' E 000°02'0 0.0
2018-Jun-04 09:30N 05°37' E 000°02'0 0.0
2018-Jun-04 09:00N 05°37' E 000°02'0 0.0
2018-Jun-04 08:30N 05°37' E 000°02'0 0.0
2018-Jun-04 08:00N 05°37' E 000°02'0 0.0
2018-Jun-04 07:30N 05°37' E 000°02'0 0.0
2018-Jun-04 06:59N 05°37' E 000°02'0 0.0
2018-Jun-04 06:28N 05°37' E 000°02'0 0.0
2018-Jun-04 05:58N 05°37' E 000°02'0 0.0
2018-Jun-04 05:30N 05°37' E 000°02'0 0.0
2018-Jun-04 04:58N 05°37' E 000°02'  

Dump ship's entire track history